NORTHERN QUEENS  -  Heat Advisory Heat Advisory     Rip Current Statement Rip Current Statement     Air Quality Alert Air Quality Alert        SOUTHERN QUEENS  -  Heat Advisory Heat Advisory     Rip Current Statement Rip Current Statement     Air Quality Alert Air Quality Alert        NORTHEAST SUFFOLK  -  Rip Current Statement Rip Current Statement        NORTHERN NASSAU  -  Rip Current Statement Rip Current Statement        NORTHWEST SUFFOLK  -  Rip Current Statement Rip Current Statement        SOUTHEAST SUFFOLK  -  Rip Current Statement Rip Current Statement        SOUTHERN NASSAU  -  Rip Current Statement Rip Current Statement        SOUTHWEST SUFFOLK  -  Rip Current Statement Rip Current Statement      

Active alerts

Northern Queens
  Details for Northern Queens Heat Advisory  +2 additional alerts
Southern Queens
  Details for Southern Queens Heat Advisory  +2 additional alerts
Northern Nassau
  Details for Northern Nassau Rip Current Statement
Southern Nassau
  Details for Southern Nassau Rip Current Statement
Northwest Suffolk
  Details for Northwest Suffolk Rip Current Statement
Southwest Suffolk
  Details for Southwest Suffolk Rip Current Statement
Northeast Suffolk
  Details for Northeast Suffolk Rip Current Statement
Southeast Suffolk
  Details for Southeast Suffolk Rip Current Statement


WXM80 ListenWXM80 Stop

You find our weather info also at:

UK Metoffice

WeatherCloud

Weather Underground

Northeastern Weather Network

AWEKAS

Citizen Weather Observer Program (CWOP)

HAMweather, WeatherForYou, PWS Weather


Weather Underground History page Text

Daily Summary for February 16, 2017 Units:  Metric    English   Both
« Previous Day
Next Day »
Daily Weekly Monthly Yearly Custom
  High: Low: Average:
Temperature: 3.4 °C -2.1 °C 0.7 °C
Dew Point: -1.9 °C -7.6 °C -5.8 °C
Humidity: 75 % 51 % 62 %
Wind Speed: 20.1 km/h 3.4 km/h 12.6 km/h
Wind Gust: 37 km/h - -
Wind:- - WNW
Pressure: 1007 hPa 994.8 hPa -
Precipitation: 0 mm    
Historical Graphs
 
 
Tabular Data for February 16, 2017
Time Temperature Dew Point Pressure Wind Wind Speed Wind Gust Humidity Rainfall Rate (Hourly)
00:00 2.1 °C -1.9 °C 994.8 hPa WNW 10.5 km/h 19.3 km/h 75 % 0 mm
00:05 2.1 °C -2.1 °C 995.1 hPa WNW 13.4 km/h 18.5 km/h 74 % 0 mm
00:10 2.1 °C -2.1 °C 995.1 hPa SW 15 km/h 20.4 km/h 74 % 0 mm
00:15 2.1 °C -2.1 °C 995.1 hPa WNW 8.7 km/h 16.7 km/h 74 % 0 mm
00:20 2.1 °C -2.2 °C 995.1 hPa WNW 8.7 km/h 13 km/h 73 % 0 mm
00:25 2.1 °C -2.2 °C 995.1 hPa WNW 13 km/h 20.9 km/h 73 % 0 mm
00:30 2.1 °C -2.2 °C 995.1 hPa West 9.2 km/h 19.3 km/h 73 % 0 mm
00:35 2.1 °C -2.4 °C 995.1 hPa West 13 km/h 18.5 km/h 72 % 0 mm
00:40 2.1 °C -2.4 °C 995.1 hPa WSW 11.6 km/h 18.5 km/h 72 % 0 mm
00:46 2.1 °C -2.4 °C 995.1 hPa SW 14.3 km/h 22.5 km/h 72 % 0 mm
00:51 2.1 °C -2.4 °C 995.1 hPa West 13.5 km/h 20.9 km/h 72 % 0 mm
00:56 2 °C -2.5 °C 995.1 hPa West 11.7 km/h 18.5 km/h 72 % 0 mm
01:01 2 °C -2.5 °C 995.1 hPa West 17.2 km/h 27.8 km/h 72 % 0 mm
01:06 2 °C -2.5 °C 995.5 hPa West 18.3 km/h 29.6 km/h 72 % 0 mm
01:11 1.9 °C -2.6 °C 995.1 hPa West 14.6 km/h 27.8 km/h 72 % 0 mm
01:16 1.9 °C -2.6 °C 995.1 hPa WSW 13.8 km/h 24.1 km/h 72 % 0 mm
01:21 1.8 °C -2.7 °C 995.5 hPa NW 13.7 km/h 31.5 km/h 72 % 0 mm
01:26 1.8 °C -2.9 °C 995.5 hPa WNW 12.4 km/h 31.5 km/h 71 % 0 mm
01:31 1.8 °C -2.9 °C 995.5 hPa WNW 7.9 km/h 25.9 km/h 71 % 0 mm
01:36 1.8 °C -2.9 °C 995.5 hPa SSW 10.1 km/h 13 km/h 71 % 0 mm
01:41 1.7 °C -3.2 °C 995.5 hPa NW 12.2 km/h 20.4 km/h 70 % 0 mm
01:46 1.7 °C -3.2 °C 995.5 hPa WNW 9.5 km/h 24.1 km/h 70 % 0 mm
01:51 1.6 °C -3.4 °C 995.1 hPa SW 14.6 km/h 25.9 km/h 69 % 0 mm
01:56 1.6 °C -3.5 °C 995.5 hPa NW 12.1 km/h 16.7 km/h 69 % 0 mm
02:02 1.6 °C -3.5 °C 995.5 hPa WSW 12.4 km/h 24.1 km/h 69 % 0 mm
02:07 1.5 °C -3.6 °C 995.1 hPa NW 16.4 km/h 25.9 km/h 69 % 0 mm
02:12 1.4 °C -3.8 °C 995.5 hPa West 16.1 km/h 27.4 km/h 68 % 0 mm
02:17 1.4 °C -3.8 °C 995.5 hPa WSW 10 km/h 18.5 km/h 68 % 0 mm
02:22 1.4 °C -3.9 °C 995.5 hPa West 14.6 km/h 25.7 km/h 68 % 0 mm
02:27 1.3 °C -4.1 °C 995.8 hPa WSW 17.2 km/h 25.7 km/h 67 % 0 mm
02:32 1.3 °C -4 °C 995.5 hPa NW 9.2 km/h 14.8 km/h 68 % 0 mm
02:37 1.2 °C -4.2 °C 995.5 hPa NW 14.2 km/h 18.5 km/h 67 % 0 mm
02:42 1.2 °C -4.2 °C 995.8 hPa West 12.4 km/h 18.5 km/h 67 % 0 mm
02:47 1.2 °C -4.3 °C 995.5 hPa West 17.7 km/h 31.5 km/h 67 % 0 mm
02:52 1.1 °C -4.3 °C 995.5 hPa WSW 14.8 km/h 24.1 km/h 67 % 0 mm
02:57 1.1 °C -4.4 °C 995.5 hPa West 17.5 km/h 27.8 km/h 67 % 0 mm
03:02 1 °C -4.4 °C 995.5 hPa West 9.8 km/h 20.4 km/h 67 % 0 mm
03:07 0.9 °C -4.3 °C 995.8 hPa West 13.5 km/h 24.1 km/h 68 % 0 mm
03:12 0.8 °C -4.4 °C 995.8 hPa NW 9.5 km/h 27.8 km/h 68 % 0 mm
03:17 0.8 °C -4.3 °C 996.2 hPa NW 10.5 km/h 18.5 km/h 69 % 0 mm
03:22 0.7 °C -4.1 °C 995.8 hPa NW 18.5 km/h 29.6 km/h 70 % 0 mm
03:27 0.7 °C -4.3 °C 996.2 hPa North 14.2 km/h 18.5 km/h 69 % 0 mm
03:33 0.7 °C -4.2 °C 996.2 hPa WNW 7.2 km/h 17.7 km/h 70 % 0 mm
03:38 0.7 °C -4.4 °C 996.2 hPa West 9.7 km/h 18.5 km/h 69 % 0 mm
03:43 0.7 °C -4.2 °C 996.2 hPa NW 11.3 km/h 24.1 km/h 70 % 0 mm
03:48 0.6 °C -4.2 °C 996.2 hPa WNW 14.2 km/h 27.8 km/h 70 % 0 mm
03:53 0.6 °C -4.2 °C 996.2 hPa NW 7.7 km/h 17.7 km/h 70 % 0 mm
03:58 0.6 °C -4.3 °C 996.2 hPa NW 13.8 km/h 20.4 km/h 70 % 0 mm
04:03 0.6 °C -4.3 °C 996.2 hPa WNW 15.4 km/h 25.9 km/h 70 % 0 mm
04:08 0.6 °C -4.5 °C 996.2 hPa West 14.6 km/h 29.6 km/h 69 % 0 mm
04:13 0.6 °C -4.5 °C 996.5 hPa NW 10.6 km/h 20.4 km/h 69 % 0 mm
04:18 0.6 °C -4.5 °C 996.5 hPa West 11.4 km/h 25.9 km/h 69 % 0 mm
04:23 0.5 °C -4.6 °C 996.5 hPa West 15.1 km/h 22.2 km/h 69 % 0 mm
04:28 0.5 °C -4.7 °C 996.5 hPa WNW 12.2 km/h 18.5 km/h 68 % 0 mm
04:33 0.4 °C -4.6 °C 996.5 hPa NW 7.9 km/h 14.8 km/h 69 % 0 mm
04:38 0.4 °C -4.8 °C 996.5 hPa North 14.3 km/h 25.9 km/h 68 % 0 mm
04:44 0.4 °C -5.1 °C 996.5 hPa West 11.7 km/h 18.5 km/h 67 % 0 mm
04:49 0.3 °C -5.1 °C 996.8 hPa WNW 18.7 km/h 31.5 km/h 67 % 0 mm
04:54 0.3 °C -5.3 °C 996.5 hPa WNW 14 km/h 25.9 km/h 66 % 0 mm
04:59 0.3 °C -5.1 °C 996.8 hPa West 13.4 km/h 20.4 km/h 67 % 0 mm
05:04 0.3 °C -5.1 °C 996.8 hPa WNW 11.7 km/h 18.5 km/h 67 % 0 mm
05:09 0.2 °C -5.2 °C 996.8 hPa NW 12.2 km/h 24.1 km/h 67 % 0 mm
05:14 0.2 °C -5.2 °C 996.5 hPa NW 10.8 km/h 31.5 km/h 67 % 0 mm
05:19 0.2 °C -5.2 °C 996.8 hPa West 12.4 km/h 25.7 km/h 67 % 0 mm
05:24 0.2 °C -5.2 °C 996.8 hPa WNW 12.1 km/h 18.5 km/h 67 % 0 mm
05:29 0.1 °C -5.5 °C 996.8 hPa NW 15.9 km/h 19.3 km/h 66 % 0 mm
05:34 0.1 °C -5.5 °C 997.2 hPa West 13 km/h 25.7 km/h 66 % 0 mm
05:39 0.1 °C -5.6 °C 996.8 hPa NW 15.3 km/h 20.4 km/h 66 % 0 mm
05:44 0.1 °C -5.7 °C 996.8 hPa West 14.6 km/h 29.6 km/h 65 % 0 mm
05:49 0 °C -5.6 °C 996.8 hPa WNW 12.1 km/h 24.1 km/h 66 % 0 mm
05:54 -0.1 °C -5.7 °C 997.2 hPa WSW 16.3 km/h 29.6 km/h 66 % 0 mm
05:59 -0.1 °C -6.1 °C 997.2 hPa WNW 16.3 km/h 30.6 km/h 64 % 0 mm
06:04 -0.1 °C -6.1 °C 997.5 hPa WNW 9.3 km/h 31.5 km/h 64 % 0 mm
06:09 -0.2 °C -6.2 °C 997.5 hPa SW 13.7 km/h 22.2 km/h 64 % 0 mm
06:14 -0.2 °C -5.9 °C 997.5 hPa WNW 17.5 km/h 35.2 km/h 65 % 0 mm
06:19 -0.2 °C -6.4 °C 997.5 hPa West 17.5 km/h 35.2 km/h 63 % 0 mm
06:24 -0.2 °C -6.2 °C 997.5 hPa NW 14.8 km/h 35.2 km/h 64 % 0 mm
06:30 -0.3 °C -6.3 °C 997.5 hPa NW 14 km/h 29 km/h 64 % 0 mm
06:35 -0.3 °C -6.3 °C 997.5 hPa West 8.9 km/h 18.5 km/h 64 % 0 mm
06:40 -0.3 °C -6.1 °C 997.9 hPa WNW 15.1 km/h 27.8 km/h 65 % 0 mm
06:45 -0.3 °C -6.1 °C 997.9 hPa NW 12.9 km/h 20.9 km/h 65 % 0 mm
06:50 -0.4 °C -6.2 °C 997.9 hPa West 9.8 km/h 25.9 km/h 65 % 0 mm
06:55 -0.4 °C -6.2 °C 998.2 hPa WNW 17.5 km/h 27.4 km/h 65 % 0 mm
07:00 -0.4 °C -6.2 °C 998.2 hPa West 13 km/h 20.9 km/h 65 % 0 mm
07:05 -0.4 °C -6.4 °C 998.2 hPa NNW 14.3 km/h 22.2 km/h 64 % 0 mm
07:10 -0.4 °C -6.4 °C 998.2 hPa West 15 km/h 18.5 km/h 64 % 0 mm
07:15 -0.4 °C -6.4 °C 998.2 hPa West 14.2 km/h 29 km/h 64 % 0 mm
07:20 -0.4 °C -6.6 °C 998.2 hPa SW 10.6 km/h 31.5 km/h 63 % 0 mm
07:21 -0.4 °C -6.6 °C 998.2 hPa WNW 5.8 km/h 27.8 km/h 63 % 0 mm
07:26 -0.4 °C -6.6 °C 998.5 hPa WNW 15.1 km/h 25.7 km/h 63 % 0 mm
07:31 -0.4 °C -6.4 °C 998.5 hPa West 11.3 km/h 25.9 km/h 64 % 0 mm
07:36 -0.4 °C -6.2 °C 998.5 hPa WSW 12.7 km/h 20.4 km/h 65 % 0 mm
07:41 -0.4 °C -6.6 °C 998.2 hPa NW 14.3 km/h 31.5 km/h 63 % 0 mm
07:46 -0.4 °C -6.6 °C 998.5 hPa WNW 16.4 km/h 37 km/h 63 % 0 mm
07:51 -0.4 °C -6.6 °C 998.5 hPa WNW 20 km/h 31.5 km/h 63 % 0 mm
07:56 -0.4 °C -6.6 °C 998.5 hPa WNW 11.7 km/h 29 km/h 63 % 0 mm
08:01 -0.4 °C -6.6 °C 998.5 hPa WSW 12.2 km/h 20.4 km/h 63 % 0 mm
08:06 -0.4 °C -6.8 °C 998.9 hPa SW 11.7 km/h 29.6 km/h 62 % 0 mm
08:11 -0.4 °C -6.8 °C 998.9 hPa West 11.6 km/h 27.4 km/h 62 % 0 mm
08:16 -0.3 °C -6.7 °C 998.9 hPa WNW 14.3 km/h 27.8 km/h 62 % 0 mm
08:21 -0.2 °C -6.6 °C 998.9 hPa West 15.1 km/h 24.1 km/h 62 % 0 mm
08:26 -0.1 °C -6.5 °C 998.9 hPa West 10.9 km/h 18.5 km/h 62 % 0 mm
08:31 0 °C -6.4 °C 998.9 hPa WNW 18.5 km/h 25.9 km/h 62 % 0 mm
08:36 0.1 °C -6.6 °C 998.9 hPa NW 13.8 km/h 24.1 km/h 61 % 0 mm
08:41 0.1 °C -6.6 °C 998.9 hPa NW 12.1 km/h 24.1 km/h 61 % 0 mm
08:46 0.2 °C -6.2 °C 999.2 hPa NW 17.7 km/h 27.8 km/h 62 % 0 mm
08:51 0.3 °C -6.1 °C 998.9 hPa West 11.7 km/h 19.3 km/h 62 % 0 mm
09:02 0.6 °C -6.3 °C 999.2 hPa WNW 14.8 km/h 25.9 km/h 60 % 0 mm
09:07 0.7 °C -6.4 °C 999.2 hPa WNW 15.9 km/h 25.9 km/h 59 % 0 mm
09:12 0.9 °C -6 °C 999.2 hPa West 8.7 km/h 29 km/h 60 % 0 mm
09:17 1.1 °C -6.3 °C 999.2 hPa WNW 13.4 km/h 29 km/h 58 % 0 mm
09:22 1.2 °C -6.2 °C 999.2 hPa NW 12.7 km/h 13 km/h 58 % 0 mm
09:27 1.2 °C -6.4 °C 999.2 hPa NW 12.2 km/h 20.4 km/h 57 % 0 mm
09:32 1.2 °C -6.4 °C 999.2 hPa WNW 15 km/h 31.5 km/h 57 % 0 mm
09:37 1.2 °C -6.4 °C 999.2 hPa West 12.7 km/h 18.5 km/h 57 % 0 mm
09:42 1.2 °C -6.4 °C 999.2 hPa West 15.4 km/h 27.8 km/h 57 % 0 mm
09:47 1.2 °C -6.4 °C 999.5 hPa NW 14.6 km/h 17.7 km/h 57 % 0 mm
09:52 1.3 °C -6.6 °C 999.5 hPa West 16.3 km/h 27.8 km/h 56 % 0 mm
09:57 1.4 °C -6.4 °C 999.5 hPa West 14 km/h 27.8 km/h 56 % 0 mm
10:02 1.5 °C -6.3 °C 999.5 hPa West 10.8 km/h 22.2 km/h 56 % 0 mm
10:07 1.5 °C -6.6 °C 999.5 hPa WNW 13.7 km/h 22.2 km/h 55 % 0 mm
10:12 1.6 °C -6.5 °C 999.5 hPa WNW 10.9 km/h 20.4 km/h 55 % 0 mm
10:17 1.7 °C -6.2 °C 999.5 hPa WNW 15.9 km/h 29.6 km/h 56 % 0 mm
10:23 1.8 °C -6.3 °C 999.5 hPa WNW 10.3 km/h 22.2 km/h 55 % 0 mm
10:28 2.1 °C -6.3 °C 999.5 hPa WNW 10 km/h 22.2 km/h 54 % 0 mm
10:29 2.1 °C -6.2 °C 999.5 hPa WNW 12.9 km/h 18.5 km/h 54 % 0 mm
10:34 2.2 °C -6.2 °C 999.5 hPa West 14.5 km/h 24.1 km/h 54 % 0 mm
10:39 2.3 °C -6.1 °C 999.5 hPa West 8.2 km/h 17.7 km/h 54 % 0 mm
10:44 2.4 °C -6.2 °C 999.5 hPa NW 12.6 km/h 25.9 km/h 53 % 0 mm
10:49 2.5 °C -6.4 °C 999.5 hPa WNW 13.7 km/h 31.5 km/h 52 % 0 mm
10:54 2.4 °C -6.4 °C 999.5 hPa NW 15.6 km/h 29.6 km/h 52 % 0 mm
10:59 2.4 °C -6.5 °C 999.9 hPa WSW 11.6 km/h 25.9 km/h 52 % 0 mm
11:05 2.4 °C -6.2 °C 999.9 hPa West 13.7 km/h 20.4 km/h 53 % 0 mm
11:10 2.7 °C -5.7 °C 999.9 hPa West 7.9 km/h 14.8 km/h 54 % 0 mm
11:15 2.9 °C -6 °C 999.9 hPa West 11.7 km/h 24.1 km/h 52 % 0 mm
11:20 3 °C -5.9 °C 999.9 hPa WNW 11.1 km/h 18.5 km/h 52 % 0 mm
11:25 3 °C -6.2 °C 999.9 hPa WSW 9.7 km/h 16.7 km/h 51 % 0 mm
11:30 3.1 °C -6.1 °C 999.9 hPa West 15.6 km/h 29.6 km/h 51 % 0 mm
11:35 3.1 °C -5.6 °C 999.5 hPa WNW 13 km/h 25.7 km/h 53 % 0 mm
11:40 3.1 °C -5.8 °C 999.9 hPa WSW 8 km/h 24.1 km/h 52 % 0 mm
11:45 3 °C -5.9 °C 999.5 hPa NW 10.9 km/h 16.7 km/h 52 % 0 mm
11:50 3 °C -5.9 °C 999.5 hPa West 10.8 km/h 20.4 km/h 52 % 0 mm
11:55 2.9 °C -5.7 °C 999.5 hPa WSW 6.3 km/h 13 km/h 53 % 0 mm
12:00 2.9 °C -5.4 °C 999.9 hPa NW 12.7 km/h 25.9 km/h 54 % 0 mm
12:05 2.8 °C -5.8 °C 999.5 hPa West 8 km/h 11.1 km/h 53 % 0 mm
12:11 2.8 °C -6.1 °C 999.5 hPa WNW 14.5 km/h 24.1 km/h 52 % 0 mm
12:16 2.7 °C -5.7 °C 999.5 hPa WSW 10.6 km/h 19.3 km/h 54 % 0 mm
12:21 2.8 °C -5.8 °C 999.5 hPa NW 17.7 km/h 31.5 km/h 53 % 0 mm
12:26 2.9 °C -5.8 °C 999.5 hPa WNW 9.5 km/h 18.5 km/h 53 % 0 mm
12:31 3 °C -5.4 °C 999.5 hPa WNW 10.3 km/h 16.7 km/h 54 % 0 mm
12:36 3 °C -5.4 °C 999.9 hPa West 10.8 km/h 27.4 km/h 54 % 0 mm
12:41 3 °C -5.9 °C 999.5 hPa West 11.4 km/h 20.4 km/h 52 % 0 mm
12:46 2.9 °C -5.9 °C 999.5 hPa WSW 10.8 km/h 25.9 km/h 52 % 0 mm
12:51 2.9 °C -5.7 °C 999.5 hPa West 13 km/h 16.7 km/h 53 % 0 mm
12:56 2.9 °C -5.7 °C 999.5 hPa WNW 13.4 km/h 25.7 km/h 53 % 0 mm
13:01 2.9 °C -5.9 °C 999.5 hPa West 16.7 km/h 22.2 km/h 52 % 0 mm
13:06 3.1 °C -5.8 °C 999.5 hPa WSW 11.7 km/h 22.2 km/h 52 % 0 mm
13:11 3.1 °C -5.8 °C 999.9 hPa NW 12.9 km/h 20.4 km/h 52 % 0 mm
13:16 3.1 °C -5.8 °C 999.5 hPa West 11.6 km/h 24.1 km/h 52 % 0 mm
13:21 3.2 °C -5.8 °C 999.5 hPa SW 12.9 km/h 22.2 km/h 52 % 0 mm
13:26 3.1 °C -5.8 °C 999.9 hPa WNW 17.4 km/h 24.1 km/h 52 % 0 mm
13:31 3.2 °C -5.8 °C 999.5 hPa West 14 km/h 27.8 km/h 52 % 0 mm
13:36 3.2 °C -5.5 °C 999.5 hPa West 12.9 km/h 18.5 km/h 53 % 0 mm
13:41 3.3 °C -5.7 °C 999.5 hPa WSW 9.5 km/h 18.5 km/h 52 % 0 mm
13:46 3.3 °C -5.4 °C 999.9 hPa WNW 10.6 km/h 18.5 km/h 53 % 0 mm
13:51 3.3 °C -5.6 °C 999.9 hPa NW 13.7 km/h 20.4 km/h 52 % 0 mm
13:56 3.4 °C -5.6 °C 999.5 hPa NW 13.7 km/h 22.5 km/h 52 % 0 mm
14:01 3.3 °C -5.8 °C 999.5 hPa West 10.5 km/h 24.1 km/h 51 % 0 mm
14:06 3.3 °C -5.6 °C 999.9 hPa West 15.8 km/h 24.1 km/h 52 % 0 mm
14:11 3.2 °C -5.7 °C 999.9 hPa WNW 11.7 km/h 22.2 km/h 52 % 0 mm
14:16 3.3 °C -5.4 °C 999.9 hPa West 13.5 km/h 22.2 km/h 53 % 0 mm
14:21 3.2 °C -5.7 °C 999.9 hPa NW 14 km/h 27.8 km/h 52 % 0 mm
14:26 3.1 °C -5.8 °C 999.9 hPa West 11.9 km/h 22.2 km/h 52 % 0 mm
14:31 2.9 °C -5.9 °C 999.9 hPa West 12.1 km/h 18.5 km/h 52 % 0 mm
14:36 2.9 °C -5.8 °C 999.9 hPa NNW 5.8 km/h 13 km/h 53 % 0 mm
14:42 2.8 °C -5.6 °C 999.9 hPa WNW 16.3 km/h 24.1 km/h 54 % 0 mm
14:47 2.7 °C -5.7 °C 999.9 hPa WSW 14.6 km/h 31.5 km/h 54 % 0 mm
14:52 2.6 °C -5.8 °C 999.9 hPa West 10.6 km/h 18.5 km/h 54 % 0 mm
14:57 2.5 °C -5.9 °C 999.9 hPa NW 11.3 km/h 31.5 km/h 54 % 0 mm
15:02 2.4 °C -5.7 °C 999.9 hPa WSW 8.9 km/h 31.5 km/h 55 % 0 mm
15:07 2.4 °C -5.5 °C 1000.2 hPa West 8.5 km/h 27.8 km/h 56 % 0 mm
15:12 2.4 °C -5.5 °C 1000.2 hPa NW 13 km/h 33.8 km/h 56 % 0 mm
15:17 2.3 °C -5.8 °C 1000.2 hPa WNW 15.1 km/h 27.8 km/h 55 % 0 mm
15:22 2.2 °C -5.9 °C 1000.2 hPa West 12.2 km/h 20.4 km/h 55 % 0 mm
15:27 2.1 °C -5.8 °C 1000.2 hPa NW 9.8 km/h 22.2 km/h 56 % 0 mm
15:32 2.1 °C -5.6 °C 1000.2 hPa WSW 12.6 km/h 24.1 km/h 57 % 0 mm
15:37 2 °C -5.9 °C 1000.6 hPa WNW 9 km/h 20.4 km/h 56 % 0 mm
15:43 1.9 °C -5.9 °C 1000.6 hPa WNW 10.3 km/h 18.5 km/h 56 % 0 mm
15:48 1.9 °C -6 °C 1000.6 hPa West 15.6 km/h 29.6 km/h 56 % 0 mm
15:53 1.8 °C -6 °C 1000.6 hPa West 17.9 km/h 35.4 km/h 56 % 0 mm
15:58 1.7 °C -6.1 °C 1000.6 hPa WNW 11.7 km/h 20.4 km/h 56 % 0 mm
16:03 1.7 °C -5.9 °C 1000.9 hPa West 9 km/h 18.5 km/h 57 % 0 mm
16:08 1.6 °C -6 °C 1000.6 hPa WNW 15.1 km/h 24.1 km/h 57 % 0 mm
16:13 1.6 °C -5.8 °C 1000.9 hPa NW 13.7 km/h 31.5 km/h 58 % 0 mm
16:18 1.5 °C -5.9 °C 1000.9 hPa NW 11.9 km/h 24.1 km/h 58 % 0 mm
16:23 1.4 °C -6.2 °C 1000.9 hPa WNW 11.3 km/h 24.1 km/h 57 % 0 mm
16:28 1.3 °C -6.1 °C 1000.9 hPa WNW 13.4 km/h 27.8 km/h 58 % 0 mm
16:33 1.2 °C -6.4 °C 1001.2 hPa West 17.2 km/h 31.5 km/h 57 % 0 mm
16:38 1.1 °C -6.5 °C 1001.2 hPa NW 12.6 km/h 20.4 km/h 57 % 0 mm
16:43 1.1 °C -6.3 °C 1001.2 hPa West 13 km/h 27.8 km/h 58 % 0 mm
16:48 1 °C -6.1 °C 1001.6 hPa WSW 9 km/h 17.7 km/h 59 % 0 mm
16:53 0.9 °C -6.4 °C 1001.6 hPa WNW 12.7 km/h 25.9 km/h 58 % 0 mm
16:59 0.9 °C -6.2 °C 1001.6 hPa WNW 12.6 km/h 27.4 km/h 59 % 0 mm
17:04 0.9 °C -6.2 °C 1001.9 hPa WNW 16.6 km/h 27.8 km/h 59 % 0 mm
17:09 0.8 °C -6.1 °C 1001.9 hPa WNW 17.5 km/h 29.6 km/h 60 % 0 mm
17:14 0.8 °C -6.1 °C 1001.9 hPa WNW 15.9 km/h 20.4 km/h 60 % 0 mm
17:19 0.7 °C -5.9 °C 1002.3 hPa WNW 12.6 km/h 13 km/h 61 % 0 mm
17:24 0.7 °C -6 °C 1002.3 hPa NW 11.6 km/h 33.3 km/h 61 % 0 mm
17:29 0.6 °C -6.1 °C 1002.3 hPa NW 15.6 km/h 31.5 km/h 61 % 0 mm
17:34 0.4 °C -6.2 °C 1002.3 hPa WNW 17.1 km/h 27.8 km/h 61 % 0 mm
17:39 0.3 °C -6.1 °C 1002.3 hPa North 11.9 km/h 25.9 km/h 62 % 0 mm
17:44 0.2 °C -6 °C 1002.6 hPa WNW 12.2 km/h 22.2 km/h 63 % 0 mm
17:49 0.2 °C -6.1 °C 1002.6 hPa WNW 20 km/h 35.2 km/h 63 % 0 mm
17:54 0.2 °C -6.3 °C 1002.9 hPa SW 17.7 km/h 29.6 km/h 62 % 0 mm
17:59 0.1 °C -6.3 °C 1002.9 hPa West 10 km/h 24.1 km/h 62 % 0 mm
18:04 0.1 °C -6.2 °C 1002.9 hPa NW 14.6 km/h 24.1 km/h 63 % 0 mm
18:09 0.1 °C -6.2 °C 1002.9 hPa West 14 km/h 24.1 km/h 63 % 0 mm
18:14 0.1 °C -6.2 °C 1003.3 hPa NW 17.2 km/h 25.9 km/h 63 % 0 mm
18:19 0 °C -6.4 °C 1003.3 hPa NW 12.1 km/h 33.3 km/h 62 % 0 mm
18:24 0 °C -6.4 °C 1003.3 hPa WNW 12.1 km/h 25.7 km/h 62 % 0 mm
18:29 -0.1 °C -6.3 °C 1003.6 hPa NW 10.3 km/h 27.8 km/h 63 % 0 mm
18:34 -0.1 °C -6.3 °C 1003.6 hPa WNW 7.6 km/h 16.7 km/h 63 % 0 mm
18:39 -0.2 °C -6.6 °C 1003.6 hPa WNW 17.9 km/h 25.7 km/h 62 % 0 mm
18:44 -0.2 °C -6.6 °C 1003.6 hPa WNW 14 km/h 25.9 km/h 62 % 0 mm
18:49 -0.3 °C -6.9 °C 1003.9 hPa NW 18.5 km/h 29.6 km/h 61 % 0 mm
18:55 -0.3 °C -6.5 °C 1003.9 hPa WNW 13.7 km/h 25.9 km/h 63 % 0 mm
19:00 -0.3 °C -6.7 °C 1003.9 hPa NW 13.8 km/h 22.2 km/h 62 % 0 mm
19:05 -0.4 °C -6.6 °C 1003.9 hPa NNW 11.1 km/h 29.6 km/h 63 % 0 mm
19:10 -0.4 °C -6.8 °C 1003.9 hPa WNW 13.7 km/h 31.5 km/h 62 % 0 mm
19:15 -0.5 °C -6.9 °C 1004.3 hPa WNW 14.6 km/h 29.6 km/h 62 % 0 mm
19:20 -0.6 °C -6.9 °C 1004.3 hPa North 18.5 km/h 24.1 km/h 62 % 0 mm
19:25 -0.6 °C -7 °C 1004.3 hPa WNW 18 km/h 29.6 km/h 62 % 0 mm
19:30 -0.7 °C -7.1 °C 1004.3 hPa WSW 14 km/h 25.9 km/h 62 % 0 mm
19:35 -0.7 °C -7.1 °C 1004.3 hPa NW 15.9 km/h 29.6 km/h 62 % 0 mm
19:40 -0.7 °C -6.9 °C 1004.6 hPa WNW 13.5 km/h 27.8 km/h 63 % 0 mm
19:45 -0.8 °C -6.9 °C 1004.6 hPa WSW 11.6 km/h 25.9 km/h 63 % 0 mm
19:50 -0.8 °C -7 °C 1005 hPa West 19.2 km/h 30.6 km/h 63 % 0 mm
19:55 -0.9 °C -7.1 °C 1005 hPa West 9.3 km/h 29.6 km/h 63 % 0 mm
20:00 -0.9 °C -7.3 °C 1005 hPa WNW 20.1 km/h 31.5 km/h 62 % 0 mm
20:05 -1 °C -7.2 °C 1005 hPa WSW 14.5 km/h 29.6 km/h 63 % 0 mm
20:10 -1.1 °C -7 °C 1005 hPa WNW 12.9 km/h 18.5 km/h 64 % 0 mm
20:15 -1.2 °C -7.5 °C 1005 hPa WNW 12.4 km/h 25.9 km/h 62 % 0 mm
20:20 -1.2 °C -6.9 °C 1005.3 hPa NW 9.8 km/h 22.2 km/h 65 % 0 mm
20:25 -1.3 °C -7.4 °C 1005.3 hPa WNW 12.4 km/h 27.8 km/h 63 % 0 mm
20:31 -1.3 °C -7.5 °C 1005.3 hPa WNW 10.3 km/h 33.3 km/h 63 % 0 mm
20:36 -1.4 °C -7.6 °C 1005.3 hPa NW 10.3 km/h 18.5 km/h 63 % 0 mm
20:41 -1.4 °C -7.1 °C 1005.6 hPa NW 15.3 km/h 20.9 km/h 65 % 0 mm
20:46 -1.4 °C -7 °C 1005.6 hPa NW 10.8 km/h 27.8 km/h 66 % 0 mm
20:51 -1.4 °C -7.2 °C 1005.6 hPa WNW 12.4 km/h 27.8 km/h 65 % 0 mm
20:56 -1.5 °C -7.2 °C 1005.6 hPa WSW 12.1 km/h 31.5 km/h 65 % 0 mm
21:01 -1.6 °C -7.3 °C 1006 hPa NW 7.1 km/h 11.1 km/h 65 % 0 mm
21:06 -1.6 °C -7.3 °C 1006 hPa NW 12.1 km/h 22.2 km/h 65 % 0 mm
21:11 -1.6 °C -7.3 °C 1006 hPa WNW 5.6 km/h 24.1 km/h 65 % 0 mm
21:16 -1.7 °C -7.4 °C 1006 hPa NNW 14.3 km/h 22.5 km/h 65 % 0 mm
21:21 -1.7 °C -7.2 °C 1006.3 hPa West 10.9 km/h 24.1 km/h 66 % 0 mm
21:26 -1.7 °C -7.4 °C 1006.3 hPa NW 10.8 km/h 29.6 km/h 65 % 0 mm
21:31 -1.7 °C -7.2 °C 1006.3 hPa WNW 17.7 km/h 25.9 km/h 66 % 0 mm
21:36 -1.7 °C -7.2 °C 1006.3 hPa WNW 10.1 km/h 24.1 km/h 66 % 0 mm
21:41 -1.8 °C -7.3 °C 1006.3 hPa WNW 10.1 km/h 18.5 km/h 66 % 0 mm
21:46 -1.8 °C -7.1 °C 1006.3 hPa WNW 4.5 km/h 11.1 km/h 67 % 0 mm
21:51 -1.8 °C -7.2 °C 1006.3 hPa WNW 10.1 km/h 19.3 km/h 67 % 0 mm
21:57 -1.8 °C -6.9 °C 1006.3 hPa NW 14.6 km/h 31.5 km/h 68 % 0 mm
22:02 -1.9 °C -7.2 °C 1006.3 hPa NNW 12.7 km/h 22.2 km/h 67 % 0 mm
22:07 -1.9 °C -7.4 °C 1006.7 hPa NNW 12.9 km/h 22.2 km/h 66 % 0 mm
22:12 -1.9 °C -7.4 °C 1006.7 hPa West 11.7 km/h 22.2 km/h 66 % 0 mm
22:17 -1.9 °C -7.3 °C 1006.7 hPa NNW 9.3 km/h 27.8 km/h 67 % 0 mm
22:22 -1.9 °C -7.3 °C 1006.7 hPa WNW 7.1 km/h 18.5 km/h 67 % 0 mm
22:27 -2 °C -7.5 °C 1006.7 hPa North 7.1 km/h 18.5 km/h 66 % 0 mm
22:32 -2 °C -7.3 °C 1006.7 hPa NW 15.3 km/h 15.3 km/h 67 % 0 mm
22:37 -2.1 °C -7.6 °C 1007 hPa NW 10.6 km/h 16.7 km/h 66 % 0 mm
22:42 -2.1 °C -7.4 °C 1006.7 hPa NW 10.1 km/h 16.1 km/h 67 % 0 mm
22:47 -2.1 °C -7.4 °C 1007 hPa WNW 6.9 km/h 22.2 km/h 67 % 0 mm
22:52 -2.1 °C -7.4 °C 1006.7 hPa West 12.1 km/h 24.1 km/h 67 % 0 mm
22:57 -2.1 °C -7.2 °C 1006.7 hPa NNE 3.4 km/h 11.1 km/h 68 % 0 mm
23:02 -2.1 °C -7.2 °C 1007 hPa NW 11.7 km/h 20.4 km/h 68 % 0 mm
23:08 -2.1 °C -7.4 °C 1006.7 hPa WNW 8.2 km/h 14.8 km/h 67 % 0 mm
23:13 -2.1 °C -7.2 °C 1007 hPa West 7.1 km/h 20.9 km/h 68 % 0 mm
23:18 -2.1 °C -7.2 °C 1007 hPa NNW 5.8 km/h 16.7 km/h 68 % 0 mm
23:23 -2.1 °C -7.4 °C 1007 hPa NW 8.5 km/h 29 km/h 67 % 0 mm
23:28 -2.1 °C -7.4 °C 1006.7 hPa SW 3.7 km/h 11.1 km/h 67 % 0 mm
23:33 -2.1 °C -7.2 °C 1007 hPa NW 8.5 km/h 16.7 km/h 68 % 0 mm
23:38 -2.1 °C -7.2 °C 1007 hPa WNW 9.7 km/h 16.7 km/h 68 % 0 mm
23:43 -2.1 °C -7.4 °C 1007 hPa WNW 9.2 km/h 16.7 km/h 67 % 0 mm
23:48 -2.1 °C -7.4 °C 1007 hPa North 8 km/h 22.2 km/h 67 % 0 mm
23:53 -2.1 °C -7.4 °C 1007 hPa NNW 14.8 km/h 16.7 km/h 67 % 0 mm
23:58 -2.1 °C -7.2 °C 1007 hPa NW 10.3 km/h 18.5 km/h 68 % 0 mm
Crab Meadow Weather
Compliments of Weather Underground - 3 mb

Script developed by  Jim McMurry - jmcmurry@mwt.net Adapted for the template by  Wim van der Kuil - Leuven-Template.eu

Weather Terms: Dense Fog Advisory - Widespread dense fog reducing visibility to less than 1/4 mile.